Perry, FL

5:56 PM EDT on July 31, 2014 (GMT -0400)
Perry (K40J) Elev 43 ft | 30.07 °N, 83.57 °W | Change Station

Current weather conditions updated 21 minutes ago

Clear
Clear
90 °F
Feels Like 90 °F
N
5
Wind Variable Wind from NW

Tomorrow is forecast to be nearly the same temperature as today.

Today
High -- | Low -- °F
--% Chance of Precip.
Yesterday
High -- | Low -- °F
Precip. -- in
6:52 AM 8:28 PM
Waxing Crescent, 21% visible
Pressure 29.97 in
Visibility 10.0 miles
Clouds Clear
Heat Index 90 °F
Dew Point 61 °F
Humidity 38%
Rainfall 0.00 in
Snow Depth Not available.
UV 5 out of 12
Pollen 4.10 out of 12
Air Quality Not available.
Flu Activity Not available.
METAR K40J 312135Z AUTO 32004KT 10SM CLR 32/16 A2997 RMK AO2

More Conditions Fewer Conditions

Pressure 29.97 in
Visibility 10.0 miles
Clouds Clear
Heat Index 90 °F
Dew Point 61 °F
Humidity 38%
Rainfall 0.00 in
Snow Depth Not available.
UV 5 out of 12
Pollen 4.10 out of 12
Air Quality Not available.
Flu Activity Not available.
METAR K40J 312135Z AUTO 32004KT 10SM CLR 32/16 A2997 RMK AO2

More Conditions Fewer Conditions

10-Day Weather Forecast

Almanac

Astronomy

Jul. 31, 2014 Rise Set
Actual Time 6:52 AM EDT 8:28 PM EDT
Civil Twilight 6:26 AM EDT 8:54 PM EDT
Nautical Twilight 5:55 AM EDT 9:25 PM EDT
Astronomical Twilight 5:22 AM EDT 9:58 PM EDT
Moon 10:56 AM EDT 11:05 PM EDT
Length of Visible Light 14h 27m
Length of Day
13h 35m
Tomorrow will be 1m 20s shorter.
Waxing Crescent, 21% of the Moon is Illuminated
Today
Waxing Crescent
Aug 3
First Quarter
Aug 10
Full
Aug 17
Last Quarter
Aug 25
New

Today's Extremes

State Highs State Lows

Community

WunderPhotos

Upload Photos

1,739,457 photos uploaded!

Nearby

Snow Depth

Station Depth Elevation
No new snow has been reported.

Earthquake Activity

City Distance Mag. Time & Date
No recent earthquake activity has been reported nearby.
Minimum magnitude displayed is 2.5.

Coastal Water Temperatures

Place Temperature
Apalachicola, FL 86.0 °F
Panama City, FL 86.0 °F

Nearby Weather Stations

Station Location Temp. Heat Index Dew Point Humidity Wind Precip. Elev Updated Type
MARITIME , Salem, FL 85 °F 86 °F 62 °F 47% WSW  at  11 mph 0.00 in / hr 6 ft 5:00 PM EDT MADIS
Terry Farm, Lee, FL 92.6 °F 93 °F 62 °F 36% WNW  at  4.0 mph 0.00 in / hr 118 ft 5:48 PM EDT Normal

Show More Stations Show Fewer Stations